Terminal Aerodrome Forecast
Issued by NWS

Home | Current Version | Previous Version | Text Only | Print | Product List | Glossary On
Versions: 1 2 3 4 5 6 7 8 9 10 11 12 13 14 15 16 17 18 19 20 21 22 23
000
FTUS44 KCRP 250531
TAFALI
TAF
KALI 250531Z 2506/2606 15004KT P6SM SCT012
     FM251000 20005KT 3SM BR SCT005 BKN012
      TEMPO 2510/2514 1SM BR BKN005
     FM251500 34007KT P6SM SCT025
     FM251800 03007KT P6SM SKC
     FM252300 11007KT P6SM SKC=

USA.gov is the U.S. government's official web portal to all federal, state and local government web resources and services.